Time;durP1;ratioP1;P1;durP2;ratioP2;P2;SDS_P1;SDS_P2;PMS_P1;PMS_P2;Temp;Humidity;BMP_temperature;BMP_pressure;BME280_temperature;BME280_humidity;BME280_pressure;Samples;Min_cycle;Max_cycle;Signal;HPM_P1;HPM_P2
2024/02/20 00:02:21;;;;;;;49.80;47.57;;;21.80;59.00;;;;;;5052931;28;20436;-67
2024/02/20 00:04:47;;;;;;;49.77;47.97;;;21.80;59.00;;;;;;5052356;28;20440;-68
2024/02/20 00:07:14;;;;;;;47.50;45.77;;;21.80;59.00;;;;;;5051555;28;20456;-67
2024/02/20 00:09:41;;;;;;;49.17;47.10;;;21.80;59.00;;;;;;5052865;28;20448;-67
2024/02/20 00:12:08;;;;;;;49.97;47.53;;;21.80;59.00;;;;;;5052668;28;20448;-68
2024/02/20 00:14:36;;;;;;;46.30;44.70;;;21.80;59.00;;;;;;5052342;28;20482;-67
2024/02/20 00:17:03;;;;;;;44.07;42.43;;;21.80;59.10;;;;;;5052232;28;20833;-67
2024/02/20 00:19:29;;;;;;;43.50;41.97;;;21.80;59.00;;;;;;5052632;28;21031;-68
2024/02/20 00:21:56;;;;;;;45.93;44.13;;;21.80;59.10;;;;;;5052401;28;20444;-67
2024/02/20 00:24:23;;;;;;;44.40;42.90;;;21.80;59.10;;;;;;5052318;28;20443;-67
2024/02/20 00:26:50;;;;;;;43.37;41.87;;;21.80;59.10;;;;;;5052181;28;20460;-67
2024/02/20 00:29:16;;;;;;;43.80;42.07;;;21.80;59.10;;;;;;5052424;28;20440;-68
2024/02/20 00:31:44;;;;;;;45.40;43.80;;;21.80;59.10;;;;;;5052284;28;20970;-67
2024/02/20 00:34:11;;;;;;;45.10;43.60;;;21.80;59.10;;;;;;5052005;28;20480;-67
2024/02/20 00:36:39;;;;;;;45.00;43.20;;;21.70;59.10;;;;;;5051850;28;20471;-67
2024/02/20 00:39:07;;;;;;;43.47;41.97;;;21.70;59.10;;;;;;5052221;28;20490;-67
2024/02/20 00:41:33;;;;;;;45.67;43.87;;;21.70;59.10;;;;;;5051937;28;20436;-67
2024/02/20 00:44:00;;;;;;;44.50;42.80;;;21.70;59.10;;;;;;5051838;28;20443;-68
2024/02/20 00:46:27;;;;;;;46.23;44.43;;;21.70;59.10;;;;;;5051930;28;20473;-66
2024/02/20 00:48:55;;;;;;;43.80;42.20;;;21.70;59.10;;;;;;5051974;28;20444;-67
2024/02/20 00:51:22;;;;;;;44.87;43.07;;;21.70;59.10;;;;;;5051789;28;20437;-67
2024/02/20 00:53:49;;;;;;;44.07;42.37;;;21.70;59.10;;;;;;5051738;28;20479;-66
2024/02/20 00:56:16;;;;;;;45.47;43.77;;;21.70;59.20;;;;;;5043634;28;20460;-67
2024/02/20 00:58:43;;;;;;;44.10;42.30;;;21.70;59.20;;;;;;5051926;28;20447;-67
2024/02/20 01:01:12;;;;;;;44.83;43.07;;;21.70;59.10;;;;;;5051481;28;20444;-67
2024/02/20 01:03:39;;;;;;;44.40;42.80;;;21.70;59.10;;;;;;5051725;28;20437;-67
2024/02/20 01:06:07;;;;;;;45.13;42.90;;;21.70;59.10;;;;;;5051557;28;20467;-66
2024/02/20 01:08:35;;;;;;;46.53;44.67;;;21.60;59.10;;;;;;5051620;28;20433;-66
2024/02/20 01:11:02;;;;;;;43.97;42.47;;;21.60;59.10;;;;;;5051382;28;20441;-66
2024/02/20 01:13:29;;;;;;;46.17;44.27;;;21.60;59.10;;;;;;5051559;28;20476;-67
2024/02/20 01:15:56;;;;;;;45.80;44.10;;;21.60;59.20;;;;;;5051213;28;20468;-66
2024/02/20 01:18:22;;;;;;;45.30;43.70;;;21.60;59.20;;;;;;5051274;28;20436;-66
2024/02/20 01:20:49;;;;;;;44.77;43.20;;;21.60;59.20;;;;;;5051361;28;20444;-68
2024/02/20 01:23:17;;;;;;;44.47;42.73;;;21.60;59.20;;;;;;5043169;28;20447;-67
2024/02/20 01:25:44;;;;;;;43.50;41.70;;;21.60;59.20;;;;;;5051271;28;20492;-67
2024/02/20 01:28:11;;;;;;;43.50;41.93;;;21.60;59.30;;;;;;5051382;28;20436;-68
2024/02/20 01:30:38;;;;;;;45.03;43.23;;;21.60;59.20;;;;;;5051208;28;20440;-67
2024/02/20 01:33:07;;;;;;;43.50;42.00;;;21.60;59.20;;;;;;5051388;28;20527;-67
2024/02/20 01:35:34;;;;;;;45.33;43.73;;;21.60;59.30;;;;;;5050752;28;20818;-67
2024/02/20 01:38:02;;;;;;;44.53;42.80;;;21.60;59.30;;;;;;5051198;28;20440;-67
2024/02/20 01:40:31;;;;;;;43.53;41.83;;;21.60;59.30;;;;;;5051280;28;20801;-67
2024/02/20 01:42:58;;;;;;;43.93;42.23;;;21.50;59.20;;;;;;5051273;28;20456;-68
2024/02/20 01:45:25;;;;;;;44.07;42.07;;;21.50;59.30;;;;;;5051056;28;20439;-67
2024/02/20 01:47:52;;;;;;;43.30;41.80;;;21.50;59.30;;;;;;5051242;28;21127;-67
2024/02/20 01:50:18;;;;;;;45.87;44.17;;;21.50;59.30;;;;;;5047469;28;20448;-67
2024/02/20 01:52:46;;;;;;;45.60;43.70;;;21.50;59.30;;;;;;5051459;28;20819;-67
2024/02/20 01:55:14;;;;;;;46.30;44.60;;;21.50;59.30;;;;;;5050515;28;20487;-67
2024/02/20 01:57:43;;;;;;;45.10;43.40;;;21.50;59.40;;;;;;5051129;28;20448;-67
2024/02/20 02:00:11;;;;;;;46.00;44.40;;;21.50;59.40;;;;;;5050982;28;20440;-68
2024/02/20 02:02:38;;;;;;;42.80;41.30;;;21.50;59.40;;;;;;5051082;28;20991;-68
2024/02/20 02:05:05;;;;;;;45.67;44.03;;;21.50;59.40;;;;;;5050689;28;20452;-67
2024/02/20 02:07:32;;;;;;;44.43;42.83;;;21.50;59.50;;;;;;5051211;28;20440;-67
2024/02/20 02:09:59;;;;;;;43.50;41.90;;;21.50;59.50;;;;;;5050791;28;20448;-67
2024/02/20 02:12:27;;;;;;;43.50;42.00;;;21.40;59.50;;;;;;5050996;28;20432;-67
2024/02/20 02:14:55;;;;;;;44.70;42.90;;;21.50;59.60;;;;;;5050734;28;20479;-67
2024/02/20 02:17:22;;;;;;;44.80;43.20;;;21.50;59.60;;;;;;5050668;28;21147;-67
2024/02/20 02:19:48;;;;;;;45.00;43.40;;;21.50;59.60;;;;;;5050669;28;20444;-68
2024/02/20 02:22:15;;;;;;;45.20;43.70;;;21.50;59.60;;;;;;5050787;28;20439;-67
2024/02/20 02:24:42;;;;;;;46.00;44.10;;;21.50;59.60;;;;;;5050800;28;20440;-67
2024/02/20 02:27:11;;;;;;;46.07;44.37;;;21.40;59.50;;;;;;5050273;28;20963;-67
2024/02/20 02:29:38;;;;;;;44.63;43.03;;;21.50;59.60;;;;;;5051478;28;20476;-67
2024/02/20 02:32:05;;;;;;;45.60;44.00;;;21.40;59.50;;;;;;5054314;28;20807;-68
2024/02/20 02:34:32;;;;;;;45.90;44.20;;;21.50;59.60;;;;;;5054399;28;20851;-67
2024/02/20 02:36:58;;;;;;;43.03;41.50;;;21.40;59.50;;;;;;5053758;28;20463;-68
2024/02/20 02:39:26;;;;;;;43.20;41.70;;;21.50;59.70;;;;;;5054455;28;20432;-67
2024/02/20 02:41:53;;;;;;;43.87;42.23;;;21.40;59.60;;;;;;5054395;28;20934;-68
2024/02/20 02:44:21;;;;;;;42.40;40.90;;;21.40;59.50;;;;;;5054413;28;20436;-67
2024/02/20 02:46:47;;;;;;;42.90;41.40;;;21.40;59.60;;;;;;5053859;28;20535;-67
2024/02/20 02:49:14;;;;;;;42.97;41.47;;;21.50;59.70;;;;;;5054087;28;20451;-67
2024/02/20 02:51:41;;;;;;;43.53;41.90;;;21.40;59.60;;;;;;5053901;28;20443;-67
2024/02/20 02:54:07;;;;;;;44.73;43.13;;;21.40;59.70;;;;;;5054078;28;20472;-67
2024/02/20 02:56:36;;;;;;;45.23;43.43;;;21.40;59.60;;;;;;5053494;28;20824;-67
2024/02/20 02:59:04;;;;;;;44.87;43.27;;;21.40;59.70;;;;;;5053980;28;20454;-67
2024/02/20 03:01:32;;;;;;;43.37;41.77;;;21.40;59.70;;;;;;5054060;28;20445;-67
2024/02/20 03:04:00;;;;;;;43.93;42.33;;;21.40;59.70;;;;;;5053806;28;20444;-66
2024/02/20 03:06:26;;;;;;;44.77;43.07;;;21.40;59.70;;;;;;5053439;28;20468;-67
2024/02/20 03:08:53;;;;;;;46.57;44.83;;;21.40;59.70;;;;;;5054136;28;20448;-67
2024/02/20 03:11:20;;;;;;;52.17;50.37;;;21.40;59.70;;;;;;5053717;28;20440;-67
2024/02/20 03:13:47;;;;;;;47.40;45.70;;;21.40;59.70;;;;;;5053705;28;20451;-66
2024/02/20 03:16:15;;;;;;;44.90;42.90;;;21.40;59.70;;;;;;5053162;28;20556;-66
2024/02/20 03:18:43;;;;;;;43.23;41.63;;;21.40;59.70;;;;;;5053961;28;20944;-67
2024/02/20 03:24:31;;;;;;;50.70;48.90;;;21.40;59.70;;;;;;5046725;28;20431;-68
2024/02/20 03:26:58;;;;;;;48.20;46.40;;;21.40;59.80;;;;;;5052854;28;20467;-67
2024/02/20 03:29:25;;;;;;;49.10;47.20;;;21.40;59.80;;;;;;5053264;28;20498;-67
2024/02/20 03:31:52;;;;;;;44.97;43.33;;;21.40;59.90;;;;;;5053408;28;20539;-67
2024/02/20 03:34:20;;;;;;;45.33;43.73;;;21.30;59.80;;;;;;5053236;28;20508;-67
2024/02/20 03:36:47;;;;;;;46.67;44.77;;;21.40;59.90;;;;;;5052842;28;20471;-67
2024/02/20 03:39:13;;;;;;;46.13;44.30;;;21.40;59.90;;;;;;5053174;28;20820;-67
2024/02/20 03:41:40;;;;;;;51.70;49.70;;;21.40;59.90;;;;;;5053228;28;20448;-67
2024/02/20 03:44:07;;;;;;;49.07;47.27;;;21.40;59.90;;;;;;5053338;28;20443;-67
2024/02/20 03:46:34;;;;;;;44.70;43.00;;;21.40;59.90;;;;;;5052710;28;20817;-67
2024/02/20 03:49:01;;;;;;;45.93;44.00;;;21.40;59.90;;;;;;5052818;28;20531;-67
2024/02/20 03:51:29;;;;;;;45.87;43.97;;;21.30;59.80;;;;;;5053320;28;20451;-67
2024/02/20 03:53:55;;;;;;;43.40;41.90;;;21.30;59.80;;;;;;5053165;28;20939;-67
2024/02/20 03:56:22;;;;;;;44.43;42.83;;;21.30;59.80;;;;;;5052380;28;20462;-68
2024/02/20 03:58:50;;;;;;;45.23;43.53;;;21.30;60.50;;;;;;5052883;28;20924;-67
2024/02/20 04:01:16;;;;;;;50.00;48.20;;;21.30;59.80;;;;;;5052882;28;20531;-67
2024/02/20 04:03:43;;;;;;;46.03;44.33;;;21.30;59.80;;;;;;5053047;28;20460;-66
2024/02/20 04:06:10;;;;;;;47.30;45.40;;;21.30;59.80;;;;;;5052015;28;20456;-67
2024/02/20 04:08:38;;;;;;;47.90;46.20;;;21.30;59.80;;;;;;5052893;28;20444;-67
2024/02/20 04:11:05;;;;;;;48.00;46.30;;;21.30;59.80;;;;;;5052824;28;20444;-66
2024/02/20 04:13:32;;;;;;;47.20;45.50;;;21.30;59.80;;;;;;5052548;28;20436;-66
2024/02/20 04:15:59;;;;;;;46.60;45.00;;;21.30;59.80;;;;;;5051977;28;20480;-67
2024/02/20 04:18:25;;;;;;;47.50;45.50;;;21.30;59.80;;;;;;5044697;28;20436;-66
2024/02/20 04:20:52;;;;;;;48.73;47.03;;;21.30;59.80;;;;;;5052579;28;20682;-66
2024/02/20 04:23:19;;;;;;;47.90;46.20;;;21.30;59.80;;;;;;5052541;28;20451;-68
2024/02/20 04:25:47;;;;;;;49.10;47.40;;;21.30;59.80;;;;;;5051896;28;20456;-66
2024/02/20 04:28:14;;;;;;;48.60;46.70;;;21.30;59.80;;;;;;5052285;28;20823;-67
2024/02/20 04:30:44;;;;;;;48.70;46.80;;;21.30;59.80;;;;;;5052376;28;20451;-68
2024/02/20 04:33:11;;;;;;;48.43;46.63;;;21.30;59.80;;;;;;5052436;28;20527;-67
2024/02/20 04:35:38;;;;;;;47.50;45.90;;;21.30;59.80;;;;;;5051599;28;20851;-67
2024/02/20 04:38:05;;;;;;;46.60;44.93;;;21.30;59.80;;;;;;5052498;28;20456;-67
2024/02/20 04:40:32;;;;;;;47.60;45.90;;;21.30;59.70;;;;;;5052173;28;20923;-67
2024/02/20 04:43:00;;;;;;;46.40;44.70;;;21.30;59.80;;;;;;5052378;28;20470;-67
2024/02/20 04:45:27;;;;;;;44.50;42.70;;;21.30;59.70;;;;;;5044247;28;20452;-67
2024/02/20 04:47:54;;;;;;;47.47;45.87;;;21.30;59.70;;;;;;5052081;28;20959;-67
2024/02/20 04:50:21;;;;;;;47.33;45.53;;;21.30;59.80;;;;;;5051910;28;20444;-67
2024/02/20 04:52:47;;;;;;;48.03;46.23;;;21.30;59.70;;;;;;5051464;28;20496;-67
2024/02/20 04:55:14;;;;;;;48.30;46.40;;;21.30;59.80;;;;;;5051055;28;20476;-67
2024/02/20 04:57:41;;;;;;;57.07;55.07;;;21.30;60.00;;;;;;5051885;28;20816;-67
2024/02/20 05:00:11;;;;;;;55.97;53.87;;;21.30;59.70;;;;;;5051600;28;20440;-67
2024/02/20 05:02:38;;;;;;;56.63;54.53;;;21.30;59.70;;;;;;5051745;28;20893;-67
2024/02/20 05:05:05;;;;;;;52.67;50.77;;;21.30;59.70;;;;;;5051480;28;20449;-67
2024/02/20 05:07:32;;;;;;;56.13;54.13;;;21.30;59.80;;;;;;5051646;28;20440;-67
2024/02/20 05:09:59;;;;;;;54.23;52.33;;;21.30;59.80;;;;;;5051632;28;20445;-68
2024/02/20 05:12:26;;;;;;;55.70;53.70;;;21.30;59.90;;;;;;5051476;28;20477;-67
2024/02/20 05:14:52;;;;;;;58.70;56.70;;;21.30;59.90;;;;;;5051495;28;20476;-67
2024/02/20 05:17:20;;;;;;;56.47;54.57;;;21.30;59.90;;;;;;5051066;28;20468;-67
2024/02/20 05:19:47;;;;;;;58.30;56.30;;;21.30;60.00;;;;;;5051793;28;20444;-67
2024/02/20 05:22:16;;;;;;;60.07;57.97;;;21.30;60.00;;;;;;5051247;28;20816;-67
2024/02/20 05:24:44;;;;;;;59.87;57.80;;;21.30;60.00;;;;;;5051530;28;20455;-67
2024/02/20 05:27:11;;;;;;;60.83;58.43;;;21.30;60.00;;;;;;5051056;28;20464;-67
2024/02/20 05:29:37;;;;;;;59.53;57.10;;;21.30;60.00;;;;;;5051476;28;20440;-67
2024/02/20 05:32:05;;;;;;;58.67;56.20;;;21.30;60.00;;;;;;5051234;28;20447;-67
2024/02/20 05:34:33;;;;;;;59.13;56.23;;;21.30;60.20;;;;;;5050970;28;20792;-67
2024/02/20 05:36:59;;;;;;;63.40;60.70;;;21.30;60.40;;;;;;5051006;28;20468;-67
2024/02/20 05:39:26;;;;;;;58.70;56.00;;;21.30;60.60;;;;;;5051377;28;20515;-67
2024/02/20 05:41:53;;;;;;;60.33;57.27;;;21.30;60.90;;;;;;5051193;28;20451;-67
2024/02/20 05:44:19;;;;;;;54.83;52.60;;;21.30;62.10;;;;;;5051049;28;20448;-67
2024/02/20 05:46:46;;;;;;;54.00;50.70;;;21.30;62.70;;;;;;5050925;28;20507;-67
2024/02/20 05:49:13;;;;;;;54.10;51.70;;;21.30;63.60;;;;;;5051082;28;21030;-67
2024/02/20 05:51:41;;;;;;;54.93;52.10;;;21.30;64.10;;;;;;5051135;28;20451;-67
2024/02/20 05:54:08;;;;;;;54.73;52.33;;;21.30;64.20;;;;;;5050660;28;20455;-67
2024/02/20 05:56:36;;;;;;;58.37;55.70;;;21.30;64.00;;;;;;5050565;28;20483;-67
2024/02/20 05:59:03;;;;;;;57.83;54.93;;;21.30;63.80;;;;;;5051152;28;20458;-67
2024/02/20 06:01:30;;;;;;;54.60;52.30;;;21.30;63.60;;;;;;5051071;28;20470;-67
2024/02/20 06:03:57;;;;;;;52.07;49.50;;;21.40;63.50;;;;;;5052054;28;20450;-67
2024/02/20 06:06:23;;;;;;;53.80;51.70;;;21.40;63.30;;;;;;5054438;28;20464;-67
2024/02/20 06:08:51;;;;;;;54.57;51.97;;;21.40;63.10;;;;;;5055065;28;20823;-67
2024/02/20 06:11:21;;;;;;;53.47;50.70;;;21.40;62.90;;;;;;5054977;28;20440;-67
2024/02/20 06:13:48;;;;;;;54.07;51.70;;;21.40;62.60;;;;;;5054707;28;20479;-67
2024/02/20 06:16:15;;;;;;;57.57;55.17;;;21.40;62.50;;;;;;5054273;28;20484;-67
2024/02/20 06:18:42;;;;;;;54.13;51.53;;;21.40;62.30;;;;;;5054878;28;20445;-67
2024/02/20 06:21:10;;;;;;;53.70;51.10;;;21.40;62.20;;;;;;5054686;28;20452;-67
2024/02/20 06:23:37;;;;;;;50.07;48.27;;;21.40;61.90;;;;;;5054866;28;20451;-67
2024/02/20 06:26:05;;;;;;;51.77;49.37;;;21.40;61.80;;;;;;5054251;28;20465;-67
2024/02/20 06:28:32;;;;;;;55.00;52.90;;;21.40;61.60;;;;;;5054624;28;20431;-67
2024/02/20 06:30:59;;;;;;;54.27;52.17;;;21.40;61.50;;;;;;5054661;28;20455;-67
2024/02/20 06:33:26;;;;;;;53.50;51.50;;;21.40;61.40;;;;;;5054374;28;20452;-67
2024/02/20 06:35:53;;;;;;;57.20;54.87;;;21.40;61.20;;;;;;5053944;28;20486;-67
2024/02/20 06:38:20;;;;;;;56.40;54.10;;;21.40;61.10;;;;;;5054329;28;20444;-67
2024/02/20 06:40:46;;;;;;;51.20;49.03;;;21.40;61.00;;;;;;5054412;28;20471;-67
2024/02/20 06:43:14;;;;;;;54.87;52.60;;;21.40;60.90;;;;;;5054327;28;20467;-67
2024/02/20 06:45:41;;;;;;;61.20;58.50;;;21.40;60.70;;;;;;5053877;28;20460;-68
2024/02/20 06:48:08;;;;;;;58.43;55.63;;;21.40;60.70;;;;;;5054040;28;20444;-68
2024/02/20 06:50:35;;;;;;;55.77;53.57;;;21.50;60.70;;;;;;5054153;28;20472;-68
2024/02/20 06:53:01;;;;;;;57.20;54.90;;;21.40;60.50;;;;;;5054204;28;20444;-68
2024/02/20 06:55:28;;;;;;;54.00;51.80;;;21.40;60.40;;;;;;5053293;28;20487;-67
2024/02/20 06:57:57;;;;;;;54.97;52.90;;;21.50;60.50;;;;;;5053929;28;20448;-68
2024/02/20 07:00:25;;;;;;;55.43;53.23;;;21.40;60.30;;;;;;5053799;28;20494;-67
2024/02/20 07:02:52;;;;;;;51.47;49.23;;;21.40;60.20;;;;;;5054034;28;20440;-68
2024/02/20 07:05:19;;;;;;;56.47;54.03;;;21.50;60.10;;;;;;5053339;28;20444;-68
2024/02/20 07:07:45;;;;;;;58.77;56.47;;;21.50;60.10;;;;;;5053869;28;20839;-68
2024/02/20 07:10:12;;;;;;;58.67;56.47;;;21.50;60.00;;;;;;5053642;28;20911;-68
2024/02/20 07:12:39;;;;;;;57.10;54.70;;;21.50;60.00;;;;;;5053707;28;20447;-68
2024/02/20 07:15:07;;;;;;;56.10;53.83;;;21.50;59.90;;;;;;5052902;28;20444;-68
2024/02/20 07:17:35;;;;;;;58.03;55.20;;;21.50;59.80;;;;;;5045337;28;20815;-68
2024/02/20 07:20:02;;;;;;;56.63;54.33;;;21.50;59.80;;;;;;5053860;28;20451;-67
2024/02/20 07:22:30;;;;;;;54.57;52.47;;;21.50;59.70;;;;;;5053443;28;20448;-67
2024/02/20 07:24:57;;;;;;;60.17;57.83;;;21.50;59.70;;;;;;5053517;28;20939;-68
2024/02/20 07:27:25;;;;;;;57.53;55.33;;;21.50;59.60;;;;;;5053076;28;20495;-68
2024/02/20 07:29:51;;;;;;;60.00;57.63;;;21.50;59.50;;;;;;5053456;28;20448;-68
2024/02/20 07:32:18;;;;;;;59.20;56.70;;;21.50;59.50;;;;;;5053348;28;20440;-68
2024/02/20 07:34:49;;;;;;;60.90;58.63;;;21.50;59.40;;;;;;5053388;28;20935;-68
2024/02/20 07:37:16;;;;;;;59.20;57.00;;;21.50;59.40;;;;;;5052814;28;20511;-68
2024/02/20 07:39:43;;;;;;;58.50;56.30;;;21.50;59.30;;;;;;5053294;28;20447;-68
2024/02/20 07:42:10;;;;;;;57.70;55.60;;;21.50;59.30;;;;;;5053166;28;20833;-68
2024/02/20 07:44:36;;;;;;;60.50;58.30;;;21.50;59.20;;;;;;5053078;28;20444;-68
2024/02/20 07:47:03;;;;;;;62.23;59.93;;;21.50;59.10;;;;;;5052771;28;20463;-67
2024/02/20 07:49:30;;;;;;;59.90;57.80;;;21.50;59.10;;;;;;5052880;28;20932;-68
2024/02/20 07:51:58;;;;;;;57.90;55.73;;;21.50;59.00;;;;;;5053070;28;20449;-67
2024/02/20 07:54:25;;;;;;;62.90;60.60;;;21.50;59.00;;;;;;5052855;28;20440;-67
2024/02/20 07:56:52;;;;;;;58.30;56.30;;;21.50;59.00;;;;;;5052452;28;20484;-68
2024/02/20 07:59:19;;;;;;;60.83;58.53;;;21.50;58.90;;;;;;5052703;28;20444;-68
2024/02/20 08:01:51;;;;;;;58.77;56.57;;;21.50;58.90;;;;;;5052836;28;20943;-68
2024/02/20 08:04:18;;;;;;;61.30;59.13;;;21.50;58.80;;;;;;5052685;28;20820;-67
2024/02/20 08:06:45;;;;;;;59.23;56.97;;;21.50;58.80;;;;;;5052501;28;20468;-68
2024/02/20 08:09:13;;;;;;;59.07;56.70;;;21.50;58.80;;;;;;5052502;28;20451;-68
2024/02/20 08:11:41;;;;;;;62.43;60.23;;;21.50;59.30;;;;;;5052685;28;20484;-67
2024/02/20 08:14:09;;;;;;;61.57;59.27;;;21.60;58.90;;;;;;5052444;28;20487;-68
2024/02/20 08:16:36;;;;;;;60.30;58.00;;;21.50;58.80;;;;;;5052135;28;20480;-67
2024/02/20 08:19:03;;;;;;;58.20;55.90;;;21.60;58.90;;;;;;5052615;28;20502;-68
2024/02/20 08:21:30;;;;;;;59.10;56.83;;;21.50;58.80;;;;;;5052448;28;20441;-67
2024/02/20 08:23:58;;;;;;;60.67;58.37;;;21.60;58.90;;;;;;5052368;28;20467;-67
2024/02/20 08:26:26;;;;;;;65.23;62.80;;;21.60;58.80;;;;;;5051779;28;20527;-67
2024/02/20 08:28:53;;;;;;;59.20;56.60;;;21.60;58.80;;;;;;5051544;28;20440;-67
2024/02/20 08:31:20;;;;;;;57.20;55.17;;;21.60;58.80;;;;;;5052213;28;20455;-68
2024/02/20 08:33:46;;;;;;;53.70;51.50;;;21.60;58.80;;;;;;5052132;28;20444;-67
2024/02/20 08:36:13;;;;;;;51.17;49.30;;;21.60;58.80;;;;;;5051644;28;20495;-67
2024/02/20 08:38:40;;;;;;;54.57;52.67;;;21.60;58.80;;;;;;5052271;28;20444;-67
2024/02/20 08:41:06;;;;;;;55.20;53.30;;;21.60;58.70;;;;;;5052182;28;20527;-68
2024/02/20 08:43:35;;;;;;;53.10;51.20;;;21.60;58.70;;;;;;5051770;28;20880;-68
2024/02/20 08:46:01;;;;;;;50.17;48.37;;;21.60;58.70;;;;;;5051630;28;20456;-67
2024/02/20 08:48:28;;;;;;;51.67;49.77;;;21.60;58.60;;;;;;5051833;28;20451;-68
2024/02/20 08:50:55;;;;;;;54.13;51.93;;;21.60;58.50;;;;;;5051848;28;20843;-67
2024/02/20 08:53:21;;;;;;;53.43;51.43;;;21.60;58.50;;;;;;5052007;28;20448;-68
2024/02/20 08:55:48;;;;;;;63.10;60.80;;;21.60;58.50;;;;;;5051359;28;20480;-68
2024/02/20 08:58:15;;;;;;;61.20;59.00;;;21.60;58.50;;;;;;5051916;28;20433;-68
2024/02/20 09:00:45;;;;;;;64.00;61.60;;;21.60;58.40;;;;;;5051739;28;20451;-68
2024/02/20 09:03:12;;;;;;;62.23;59.93;;;21.60;58.40;;;;;;5051853;28;20805;-68
2024/02/20 09:05:39;;;;;;;58.67;56.57;;;21.60;58.30;;;;;;5043046;28;21029;-68
2024/02/20 09:08:08;;;;;;;54.90;53.00;;;21.60;58.20;;;;;;5051885;28;20440;-68
2024/02/20 09:10:34;;;;;;;56.03;53.87;;;21.60;58.20;;;;;;5051409;28;20812;-68
2024/02/20 09:13:01;;;;;;;61.17;58.77;;;21.60;58.20;;;;;;5051642;28;20445;-68
2024/02/20 09:15:28;;;;;;;59.87;57.67;;;21.60;58.10;;;;;;5050954;28;20460;-68
2024/02/20 09:17:56;;;;;;;58.07;55.97;;;21.60;58.10;;;;;;5051763;28;20855;-68
2024/02/20 09:20:22;;;;;;;59.60;57.37;;;21.60;58.00;;;;;;5051409;28;20444;-67
2024/02/20 09:22:49;;;;;;;60.07;57.90;;;21.60;58.00;;;;;;5051413;28;20448;-68
2024/02/20 09:25:16;;;;;;;58.33;56.13;;;21.70;58.00;;;;;;5050741;28;20445;-68
2024/02/20 09:27:42;;;;;;;60.17;57.97;;;21.60;58.00;;;;;;5051433;28;20447;-67
2024/02/20 09:30:11;;;;;;;63.20;60.93;;;21.60;57.90;;;;;;5051389;28;21007;-68
2024/02/20 09:32:40;;;;;;;60.23;57.93;;;21.60;57.90;;;;;;5051173;28;20510;-68
2024/02/20 09:35:09;;;;;;;58.43;56.30;;;21.60;57.90;;;;;;5050863;28;20830;-67
2024/02/20 09:37:36;;;;;;;62.13;59.80;;;21.60;57.90;;;;;;5051089;28;20476;-68
2024/02/20 09:40:04;;;;;;;60.60;58.40;;;21.60;57.90;;;;;;5050992;28;20924;-68
2024/02/20 09:42:35;;;;;;;53.50;51.50;;;21.70;58.00;;;;;;5051153;28;20886;-68
2024/02/20 09:45:05;;;;;;;59.27;57.13;;;21.60;57.90;;;;;;5051169;28;20451;-68
2024/02/20 09:47:35;;;;;;;60.60;58.40;;;21.70;58.00;;;;;;5051232;28;20543;-68
2024/02/20 09:50:03;;;;;;;58.07;55.97;;;21.60;57.90;;;;;;5051213;28;20451;-67
2024/02/20 09:52:32;;;;;;;60.97;58.87;;;21.60;57.90;;;;;;5051023;28;20444;-67
2024/02/20 09:55:01;;;;;;;60.70;58.50;;;21.70;58.00;;;;;;5050927;28;20436;-68
2024/02/20 09:57:32;;;;;;;61.60;59.33;;;21.70;58.00;;;;;;5050729;28;20484;-68
2024/02/20 09:59:58;;;;;;;63.83;61.50;;;21.70;57.90;;;;;;5051038;28;20444;-68
2024/02/20 10:02:28;;;;;;;60.43;58.33;;;21.60;57.80;;;;;;5050901;28;20467;-68
2024/02/20 10:04:55;;;;;;;62.60;60.20;;;21.70;57.90;;;;;;5051254;28;20448;-67
2024/02/20 10:07:22;;;;;;;63.80;61.40;;;21.70;57.80;;;;;;5050455;28;20460;-68
2024/02/20 10:09:50;;;;;;;60.93;58.73;;;21.70;57.80;;;;;;5050972;28;20449;-68
2024/02/20 10:12:19;;;;;;;63.20;60.67;;;21.70;57.70;;;;;;5050772;28;20455;-67
2024/02/20 10:14:46;;;;;;;61.10;58.70;;;21.70;57.70;;;;;;5050896;28;20471;-67
2024/02/20 10:17:15;;;;;;;62.40;60.10;;;21.70;57.70;;;;;;5050458;28;20555;-67
2024/02/20 10:19:42;;;;;;;62.27;59.90;;;21.70;57.60;;;;;;5050678;28;20974;-67
2024/02/20 10:22:10;;;;;;;61.30;59.00;;;21.70;57.60;;;;;;5050845;28;20502;-67
2024/02/20 10:24:36;;;;;;;62.93;60.40;;;21.70;57.60;;;;;;5050590;28;20440;-68
2024/02/20 10:27:05;;;;;;;61.10;58.90;;;21.70;57.50;;;;;;5050366;28;20832;-68
2024/02/20 10:29:32;;;;;;;62.00;59.80;;;21.70;57.50;;;;;;5050665;28;20445;-68
2024/02/20 10:31:58;;;;;;;58.30;56.20;;;21.70;57.40;;;;;;5050817;28;20842;-68
2024/02/20 10:34:25;;;;;;;59.67;57.30;;;21.70;57.40;;;;;;5050447;28;20440;-68
2024/02/20 10:36:52;;;;;;;60.70;58.50;;;21.70;57.40;;;;;;5050458;28;20483;-67
2024/02/20 10:39:21;;;;;;;60.47;58.27;;;21.70;57.30;;;;;;5050414;28;20440;-67
2024/02/20 10:41:48;;;;;;;58.80;56.70;;;21.70;57.30;;;;;;5050589;28;20449;-67
2024/02/20 10:44:17;;;;;;;59.30;57.10;;;21.70;57.30;;;;;;5050541;28;20443;-67
2024/02/20 10:46:44;;;;;;;59.37;56.80;;;21.70;57.20;;;;;;5042132;28;20463;-67
2024/02/20 10:49:19;;;;;;;55.60;53.60;;;21.70;57.20;;;;;;5050632;28;20928;-67
2024/02/20 10:51:47;;;;;;;57.40;55.20;;;21.70;57.10;;;;;;5044916;28;20815;-67
2024/02/20 10:54:15;;;;;;;60.50;58.30;;;21.70;57.10;;;;;;5054066;28;20444;-68
2024/02/20 10:56:43;;;;;;;59.93;57.63;;;21.70;57.10;;;;;;5053721;28;20859;-68
2024/02/20 10:59:11;;;;;;;59.73;57.53;;;21.70;57.10;;;;;;5054067;28;20443;-68
2024/02/20 11:01:40;;;;;;;55.63;53.53;;;21.70;57.10;;;;;;5053906;28;20535;-68
2024/02/20 11:04:08;;;;;;;60.33;57.93;;;21.70;57.00;;;;;;5053836;28;20440;-67
2024/02/20 11:06:36;;;;;;;56.67;54.60;;;21.70;57.00;;;;;;5053490;28;20452;-68
2024/02/20 11:09:08;;;;;;;58.10;55.97;;;21.70;57.00;;;;;;5053972;28;20447;-68
2024/02/20 11:11:35;;;;;;;58.40;56.30;;;21.70;57.00;;;;;;5053762;28;20444;-68
2024/02/20 11:14:02;;;;;;;59.50;57.20;;;21.70;57.00;;;;;;5053631;28;20859;-68
2024/02/20 11:16:34;;;;;;;61.33;59.03;;;21.70;57.00;;;;;;5053270;28;20488;-67
2024/02/20 11:19:03;;;;;;;60.70;58.43;;;21.70;57.00;;;;;;5053808;28;20863;-68
2024/02/20 11:21:30;;;;;;;56.80;54.70;;;21.70;57.00;;;;;;5053529;28;20472;-67
2024/02/20 11:23:57;;;;;;;57.97;55.87;;;21.70;57.00;;;;;;5053432;28;20437;-67
2024/02/20 11:26:28;;;;;;;57.40;55.30;;;21.70;57.00;;;;;;5053135;28;20457;-67
2024/02/20 11:28:55;;;;;;;60.20;57.80;;;21.70;57.00;;;;;;5053666;28;20827;-68
2024/02/20 11:31:26;;;;;;;55.60;53.43;;;21.70;57.00;;;;;;5053301;28;20443;-68
2024/02/20 11:33:53;;;;;;;57.33;55.13;;;21.70;56.90;;;;;;5053421;28;20494;-67
2024/02/20 11:36:21;;;;;;;57.47;55.47;;;21.70;56.90;;;;;;5052867;28;20460;-67
2024/02/20 11:38:59;;;;;;;62.03;59.83;;;21.70;56.90;;;;;;5045427;28;20463;-67
2024/02/20 11:41:26;;;;;;;53.53;51.60;;;21.70;56.90;;;;;;5053320;28;20439;-67
2024/02/20 11:44:00;;;;;;;56.60;54.50;;;21.70;56.90;;;;;;5053075;28;20468;-68
2024/02/20 11:46:27;;;;;;;57.67;55.57;;;21.70;56.90;;;;;;5052771;28;20456;-67
2024/02/20 11:48:54;;;;;;;57.80;55.63;;;21.70;56.90;;;;;;5053019;28;20444;-68
2024/02/20 11:51:23;;;;;;;56.20;54.10;;;21.70;56.90;;;;;;5053132;28;20907;-67
2024/02/20 11:53:51;;;;;;;54.13;52.23;;;21.70;57.40;;;;;;5045091;28;20444;-67
2024/02/20 11:56:18;;;;;;;56.03;54.03;;;21.70;56.80;;;;;;5052489;28;20470;-67
2024/02/20 11:58:44;;;;;;;53.33;51.23;;;21.70;56.80;;;;;;5053002;28;20912;-67
2024/02/20 12:01:12;;;;;;;54.60;52.50;;;21.70;56.80;;;;;;5052897;28;20445;-68
2024/02/20 12:03:42;;;;;;;58.10;55.90;;;21.70;56.70;;;;;;5052579;28;20452;-68
2024/02/20 12:06:09;;;;;;;60.40;58.20;;;21.70;56.70;;;;;;5052428;28;20464;-68
2024/02/20 12:08:41;;;;;;;61.03;58.63;;;21.70;56.70;;;;;;5052617;28;20923;-67
2024/02/20 12:11:09;;;;;;;58.27;56.07;;;21.70;56.60;;;;;;5052833;28;20452;-68
2024/02/20 12:13:36;;;;;;;55.00;52.90;;;21.70;56.60;;;;;;5052429;28;20918;-68
2024/02/20 12:16:03;;;;;;;54.87;52.83;;;21.70;56.60;;;;;;5052146;28;20542;-68
2024/02/20 12:18:31;;;;;;;52.10;50.10;;;21.70;56.50;;;;;;5052336;28;20487;-68
2024/02/20 12:21:08;;;;;;;55.20;53.20;;;21.70;56.50;;;;;;5052419;28;20443;-68
2024/02/20 12:23:37;;;;;;;54.47;52.50;;;21.70;56.50;;;;;;5052478;28;20518;-68
2024/02/20 12:26:05;;;;;;;58.60;56.50;;;21.70;56.50;;;;;;5052052;28;20963;-68
2024/02/20 12:28:32;;;;;;;58.90;56.80;;;21.70;56.50;;;;;;5052226;28;20437;-68
2024/02/20 12:30:59;;;;;;;58.40;56.20;;;21.70;56.50;;;;;;5052220;28;20440;-68
2024/02/20 12:33:26;;;;;;;52.53;50.63;;;21.70;56.50;;;;;;5052092;28;20825;-68